createdAt,value
2018-03-29T00:02:00.270Z,2.90
2018-03-29T00:04:28.780Z,2.50
2018-03-29T00:06:56.193Z,2.63
2018-03-29T00:09:23.771Z,2.50
2018-03-29T00:11:51.188Z,2.40
2018-03-29T00:14:19.241Z,3.10
2018-03-29T00:16:46.800Z,2.53
2018-03-29T00:19:14.383Z,2.73
2018-03-29T00:21:41.900Z,2.40
2018-03-29T00:24:09.479Z,2.80
2018-03-29T00:26:37.054Z,2.63
2018-03-29T00:29:04.716Z,2.37
2018-03-29T00:31:32.184Z,2.80
2018-03-29T00:33:59.606Z,2.67
2018-03-29T00:36:27.053Z,2.73
2018-03-29T00:38:54.508Z,2.60
2018-03-29T00:41:21.946Z,3.00
2018-03-29T00:43:49.355Z,2.70
2018-03-29T00:46:17.852Z,2.50
2018-03-29T00:48:45.416Z,2.53
2018-03-29T00:51:13.958Z,2.53
2018-03-29T00:53:45.272Z,2.63
2018-03-29T00:56:12.844Z,3.10
2018-03-29T00:58:40.370Z,3.53
2018-03-29T01:01:07.930Z,2.93
2018-03-29T01:03:35.425Z,3.60
2018-03-29T01:06:02.880Z,3.07
2018-03-29T01:08:32.761Z,3.20
2018-03-29T01:11:00.190Z,2.57
2018-03-29T01:13:27.644Z,3.03
2018-03-29T01:15:55.048Z,2.73
2018-03-29T01:18:22.564Z,3.13
2018-03-29T01:20:50.052Z,3.37
2018-03-29T01:23:17.508Z,3.43
2018-03-29T01:25:44.998Z,3.40
2018-03-29T01:28:12.457Z,3.67
2018-03-29T01:30:39.990Z,3.47
2018-03-29T01:33:07.436Z,3.30
2018-03-29T01:35:34.979Z,3.50
2018-03-29T01:38:02.392Z,3.03
2018-03-29T01:40:29.843Z,3.90
2018-03-29T01:42:57.264Z,3.67
2018-03-29T01:45:24.792Z,3.40
2018-03-29T01:47:52.215Z,3.53
2018-03-29T01:50:20.260Z,3.73
2018-03-29T01:52:47.679Z,4.00
2018-03-29T01:55:15.121Z,3.70
2018-03-29T01:57:42.706Z,3.77
2018-03-29T02:00:10.388Z,4.33
2018-03-29T02:02:37.898Z,3.60
2018-03-29T02:05:05.393Z,3.83
2018-03-29T02:07:32.835Z,4.10
2018-03-29T02:10:00.288Z,3.97
2018-03-29T02:12:27.721Z,4.20
2018-03-29T02:14:55.138Z,3.87
2018-03-29T02:17:22.587Z,4.00
2018-03-29T02:19:50.124Z,3.73
2018-03-29T02:22:18.822Z,3.60
2018-03-29T02:24:46.427Z,3.73
2018-03-29T02:27:13.849Z,4.10
2018-03-29T02:29:41.294Z,3.63
2018-03-29T02:32:08.726Z,3.80
2018-03-29T02:34:36.173Z,4.07
2018-03-29T02:37:03.594Z,3.90
2018-03-29T02:39:31.084Z,4.03
2018-03-29T02:41:58.597Z,3.90
2018-03-29T02:44:26.189Z,3.40
2018-03-29T02:46:53.608Z,3.97
2018-03-29T02:49:21.152Z,4.03
2018-03-29T02:51:48.800Z,3.60
2018-03-29T02:54:16.389Z,4.47
2018-03-29T02:56:43.908Z,3.90
2018-03-29T02:59:11.516Z,3.43
2018-03-29T03:01:39.144Z,3.80
2018-03-29T03:04:06.646Z,4.03
2018-03-29T03:06:34.054Z,4.63
2018-03-29T03:09:02.272Z,4.17
2018-03-29T03:11:29.840Z,3.70
2018-03-29T03:13:57.262Z,4.33
2018-03-29T03:16:24.707Z,4.07
2018-03-29T03:18:52.144Z,4.17
2018-03-29T03:21:19.714Z,4.00
2018-03-29T03:23:47.160Z,3.87
2018-03-29T03:26:15.200Z,4.07
2018-03-29T03:28:42.657Z,4.07
2018-03-29T03:31:10.275Z,4.40
2018-03-29T03:33:37.928Z,3.27
2018-03-29T03:36:05.361Z,3.47
2018-03-29T03:38:32.805Z,4.17
2018-03-29T03:41:00.228Z,3.80
2018-03-29T03:43:27.673Z,4.30
2018-03-29T03:45:55.089Z,4.70
2018-03-29T03:48:22.534Z,4.23
2018-03-29T03:50:50.155Z,4.03
2018-03-29T03:53:17.717Z,4.50
2018-03-29T03:55:46.377Z,3.80
2018-03-29T03:58:13.871Z,4.60
2018-03-29T04:00:41.286Z,4.10
2018-03-29T04:03:08.725Z,4.30
2018-03-29T04:05:36.658Z,4.00
2018-03-29T04:08:04.289Z,4.07
2018-03-29T04:10:31.825Z,4.00
2018-03-29T04:12:59.495Z,3.90
2018-03-29T04:15:26.960Z,4.00
2018-03-29T04:17:54.377Z,3.20
2018-03-29T04:20:21.822Z,4.10
2018-03-29T04:22:49.262Z,3.97
2018-03-29T04:25:16.708Z,3.80
2018-03-29T04:27:44.153Z,4.20
2018-03-29T04:30:11.651Z,4.27
2018-03-29T04:32:39.287Z,5.23
2018-03-29T04:35:07.641Z,5.00
2018-03-29T04:37:35.110Z,6.53
2018-03-29T04:40:02.553Z,5.30
2018-03-29T04:42:29.987Z,5.17
2018-03-29T04:44:57.552Z,4.53
2018-03-29T04:47:25.010Z,4.43
2018-03-29T04:49:53.253Z,4.10
2018-03-29T04:52:20.672Z,4.60
2018-03-29T04:54:48.130Z,4.30
2018-03-29T04:57:15.612Z,4.27
2018-03-29T04:59:43.053Z,4.57
2018-03-29T05:02:10.494Z,5.30
2018-03-29T05:04:37.952Z,5.30
2018-03-29T05:07:05.505Z,4.40
2018-03-29T05:09:33.182Z,4.90
2018-03-29T05:12:00.727Z,4.40
2018-03-29T05:14:28.186Z,5.00
2018-03-29T05:16:55.640Z,4.10
2018-03-29T05:19:23.070Z,4.87
2018-03-29T05:21:50.633Z,4.73
2018-03-29T05:24:18.048Z,5.33
2018-03-29T05:26:49.341Z,4.50
2018-03-29T05:29:16.767Z,5.13
2018-03-29T05:31:44.504Z,5.13
2018-03-29T05:34:12.032Z,4.77
2018-03-29T05:36:39.510Z,4.80
2018-03-29T05:39:06.959Z,5.03
2018-03-29T05:41:34.433Z,5.90
2018-03-29T05:44:01.907Z,5.28
2018-03-29T05:46:29.319Z,4.87
2018-03-29T05:48:56.760Z,4.90
2018-03-29T05:51:24.185Z,5.20
2018-03-29T05:53:51.622Z,5.17
2018-03-29T05:56:19.045Z,5.10
2018-03-29T05:58:46.491Z,4.87
2018-03-29T06:01:14.013Z,23.30
2018-03-29T06:03:41.484Z,27.97
2018-03-29T06:06:08.936Z,7.60
2018-03-29T06:08:36.382Z,5.60
2018-03-29T06:11:03.857Z,4.93
2018-03-29T06:13:31.240Z,5.30
2018-03-29T06:16:04.540Z,5.27
2018-03-29T06:18:32.898Z,5.30
2018-03-29T06:21:01.062Z,5.30
2018-03-29T06:23:28.497Z,5.10
2018-03-29T06:25:55.946Z,5.40
2018-03-29T06:28:24.035Z,5.00
2018-03-29T06:30:51.485Z,5.27
2018-03-29T06:33:18.969Z,5.20
2018-03-29T06:35:46.484Z,4.97
2018-03-29T06:38:13.904Z,5.50
2018-03-29T06:40:41.389Z,5.20
2018-03-29T06:43:08.819Z,5.13
2018-03-29T06:45:36.263Z,5.43
2018-03-29T06:48:04.121Z,5.20
2018-03-29T06:50:31.533Z,5.20
2018-03-29T06:52:58.979Z,7.10
2018-03-29T06:55:26.457Z,4.73
2018-03-29T06:57:54.449Z,5.30
2018-03-29T07:00:21.864Z,5.37
2018-03-29T07:02:49.396Z,5.20
2018-03-29T07:05:16.908Z,5.33
2018-03-29T07:07:44.495Z,4.67
2018-03-29T07:10:12.807Z,5.00
2018-03-29T07:12:40.260Z,4.50
2018-03-29T07:15:07.776Z,4.80
2018-03-29T07:17:35.199Z,5.00
2018-03-29T07:20:02.657Z,5.50
2018-03-29T07:22:30.091Z,5.03
2018-03-29T07:24:57.536Z,5.20
2018-03-29T07:27:25.087Z,5.63
2018-03-29T07:29:53.754Z,5.60
2018-03-29T07:32:21.186Z,5.10
2018-03-29T07:34:48.711Z,4.87
2018-03-29T07:37:16.567Z,5.60
2018-03-29T07:39:44.001Z,5.50
2018-03-29T07:42:11.481Z,5.40
2018-03-29T07:44:39.185Z,5.00
2018-03-29T07:47:06.664Z,5.40
2018-03-29T07:49:34.282Z,5.00
2018-03-29T07:52:01.727Z,5.40
2018-03-29T07:54:29.223Z,5.40
2018-03-29T07:56:56.722Z,4.87
2018-03-29T07:59:24.181Z,5.27
2018-03-29T08:01:51.630Z,4.77
2018-03-29T08:04:19.073Z,4.40
2018-03-29T08:06:46.510Z,4.80
2018-03-29T08:09:14.051Z,4.30
2018-03-29T08:11:41.605Z,4.00
2018-03-29T08:14:09.054Z,4.03
2018-03-29T08:16:36.530Z,4.77
2018-03-29T08:19:03.988Z,3.90
2018-03-29T08:21:31.951Z,4.60
2018-03-29T08:23:59.403Z,4.03
2018-03-29T08:26:26.974Z,4.67
2018-03-29T08:28:54.445Z,4.47
2018-03-29T08:31:22.380Z,4.50
2018-03-29T08:33:49.939Z,4.10
2018-03-29T08:36:17.500Z,4.87
2018-03-29T08:38:45.047Z,4.27
2018-03-29T08:41:12.718Z,4.10
2018-03-29T08:43:40.296Z,3.90
2018-03-29T08:46:07.990Z,4.33
2018-03-29T08:48:35.465Z,4.43
2018-03-29T08:51:02.999Z,4.07
2018-03-29T08:53:30.494Z,3.73
2018-03-29T08:55:58.014Z,4.03
2018-03-29T08:58:25.438Z,4.10
2018-03-29T09:00:52.886Z,3.80
2018-03-29T09:03:20.326Z,4.07
2018-03-29T09:05:47.763Z,4.00
2018-03-29T09:08:15.283Z,4.63
2018-03-29T09:10:42.725Z,3.40
2018-03-29T09:13:10.157Z,4.00
2018-03-29T09:15:37.930Z,4.10
2018-03-29T09:18:05.370Z,3.73
2018-03-29T09:20:32.978Z,4.50
2018-03-29T09:23:00.563Z,4.83
2018-03-29T09:25:27.995Z,4.17
2018-03-29T09:27:56.048Z,4.47
2018-03-29T09:30:23.549Z,4.43
2018-03-29T09:32:52.094Z,4.33
2018-03-29T09:35:19.512Z,4.03
2018-03-29T09:37:47.097Z,4.23
2018-03-29T09:40:15.898Z,3.67
2018-03-29T09:42:43.346Z,4.30
2018-03-29T09:45:10.968Z,4.47
2018-03-29T09:47:38.578Z,4.40
2018-03-29T09:50:06.032Z,4.17
2018-03-29T09:52:33.504Z,3.93
2018-03-29T09:55:01.797Z,4.03
2018-03-29T09:57:29.277Z,4.30
2018-03-29T09:59:56.744Z,4.07
2018-03-29T10:02:26.076Z,3.93
2018-03-29T10:04:59.017Z,3.57
2018-03-29T10:07:32.148Z,3.27
2018-03-29T10:09:59.737Z,3.80
2018-03-29T10:12:27.158Z,3.53
2018-03-29T10:14:54.610Z,3.70
2018-03-29T10:17:22.034Z,3.80
2018-03-29T10:19:49.586Z,3.70
2018-03-29T10:22:17.152Z,3.50
2018-03-29T10:24:44.583Z,3.17
2018-03-29T10:27:12.048Z,3.63
2018-03-29T10:29:39.557Z,3.83
2018-03-29T10:32:07.887Z,3.60
2018-03-29T10:34:35.505Z,3.63
2018-03-29T10:37:03.037Z,4.00
2018-03-29T10:39:30.630Z,3.50
2018-03-29T10:41:58.302Z,3.40
2018-03-29T10:44:25.976Z,3.70
2018-03-29T10:46:53.651Z,3.30
2018-03-29T10:49:21.212Z,3.93
2018-03-29T10:51:49.528Z,3.60
2018-03-29T10:54:17.166Z,3.70
2018-03-29T10:56:44.863Z,3.40
2018-03-29T10:59:12.399Z,3.40
2018-03-29T11:01:39.898Z,4.00
2018-03-29T11:04:07.512Z,3.60
2018-03-29T11:06:34.964Z,3.50
2018-03-29T11:09:02.427Z,3.10
2018-03-29T11:11:30.025Z,3.83
2018-03-29T11:13:57.510Z,3.50
2018-03-29T11:16:24.934Z,2.90
2018-03-29T11:18:52.358Z,3.00
2018-03-29T11:21:19.845Z,3.67
2018-03-29T11:23:47.435Z,3.27
2018-03-29T11:26:15.093Z,3.40
2018-03-29T11:28:42.520Z,2.80
2018-03-29T11:31:10.031Z,3.00
2018-03-29T11:33:37.496Z,3.30
2018-03-29T11:36:05.085Z,3.00
2018-03-29T11:38:32.733Z,2.80
2018-03-29T11:41:00.156Z,2.90
2018-03-29T11:43:27.646Z,3.07
2018-03-29T11:45:55.069Z,2.97
2018-03-29T11:48:22.526Z,3.57
2018-03-29T11:50:50.112Z,2.97
2018-03-29T11:53:18.318Z,3.13
2018-03-29T11:55:45.855Z,3.40
2018-03-29T11:58:13.299Z,3.30
2018-03-29T12:00:41.252Z,3.00
2018-03-29T12:03:08.769Z,3.20
2018-03-29T12:05:36.431Z,3.37
2018-03-29T12:08:03.969Z,2.90
2018-03-29T12:10:31.434Z,3.50
2018-03-29T12:12:58.853Z,3.37
2018-03-29T12:15:26.301Z,3.17
2018-03-29T12:17:53.888Z,3.40
2018-03-29T12:20:21.313Z,3.60
2018-03-29T12:22:48.774Z,3.50
2018-03-29T12:25:16.232Z,3.40
2018-03-29T12:27:44.029Z,2.80
2018-03-29T12:30:11.494Z,3.37
2018-03-29T12:32:39.007Z,3.20
2018-03-29T12:35:06.456Z,3.07
2018-03-29T12:37:33.901Z,3.00
2018-03-29T12:40:01.390Z,2.80
2018-03-29T12:42:28.958Z,2.90
2018-03-29T12:44:56.448Z,2.73
2018-03-29T12:47:24.393Z,3.00
2018-03-29T12:49:51.959Z,2.87
2018-03-29T12:52:19.564Z,3.17
2018-03-29T12:54:58.980Z,3.17
2018-03-29T12:57:38.366Z,2.50
2018-03-29T13:00:05.805Z,3.07
2018-03-29T13:02:33.356Z,3.50
2018-03-29T13:05:00.910Z,3.17
2018-03-29T13:07:28.587Z,3.70
2018-03-29T13:09:56.324Z,2.60
2018-03-29T13:12:23.738Z,2.90
2018-03-29T13:14:51.295Z,3.27
2018-03-29T13:17:18.973Z,3.00
2018-03-29T13:19:46.435Z,2.70
2018-03-29T13:22:13.854Z,2.90
2018-03-29T13:24:41.459Z,2.60
2018-03-29T13:27:09.087Z,3.50
2018-03-29T13:29:36.621Z,3.60
2018-03-29T13:32:04.155Z,3.50
2018-03-29T13:34:31.692Z,4.07
2018-03-29T13:36:59.245Z,3.83
2018-03-29T13:39:28.278Z,3.90
2018-03-29T13:41:55.767Z,3.80
2018-03-29T13:44:23.218Z,4.07
2018-03-29T13:46:50.645Z,3.63
2018-03-29T13:49:18.095Z,4.33
2018-03-29T13:51:45.534Z,4.33
2018-03-29T13:54:12.980Z,4.30
2018-03-29T13:56:40.506Z,4.20
2018-03-29T13:59:08.010Z,3.60
2018-03-29T14:01:35.472Z,4.77
2018-03-29T14:04:03.038Z,4.80
2018-03-29T14:06:31.274Z,4.70
2018-03-29T14:08:58.714Z,4.80
2018-03-29T14:11:26.254Z,4.80
2018-03-29T14:13:53.678Z,5.00
2018-03-29T14:16:21.271Z,4.93
2018-03-29T14:18:48.709Z,4.73
2018-03-29T14:21:16.334Z,4.47
2018-03-29T14:23:43.932Z,4.50
2018-03-29T14:26:11.452Z,4.40
2018-03-29T14:28:38.930Z,4.23
2018-03-29T14:31:06.362Z,4.80
2018-03-29T14:33:33.836Z,4.90
2018-03-29T14:36:01.303Z,4.40
2018-03-29T14:38:28.726Z,4.20
2018-03-29T14:40:56.251Z,5.13
2018-03-29T14:43:23.705Z,4.43
2018-03-29T14:45:51.213Z,4.40
2018-03-29T14:48:18.722Z,4.20
2018-03-29T14:50:46.165Z,4.03
2018-03-29T14:53:13.677Z,3.80
2018-03-29T14:55:41.209Z,4.10
2018-03-29T14:58:08.763Z,3.90
2018-03-29T15:00:36.268Z,4.43
2018-03-29T15:03:03.727Z,4.00
2018-03-29T15:05:31.143Z,3.97
2018-03-29T15:07:58.625Z,3.60
2018-03-29T15:10:26.077Z,3.83
2018-03-29T15:12:53.555Z,3.93
2018-03-29T15:15:21.099Z,4.20
2018-03-29T15:17:48.782Z,3.70
2018-03-29T15:20:16.247Z,3.83
2018-03-29T15:22:44.495Z,5.17
2018-03-29T15:25:12.088Z,5.30
2018-03-29T15:27:39.630Z,5.00
2018-03-29T15:30:07.078Z,5.40
2018-03-29T15:32:35.438Z,5.00
2018-03-29T15:35:03.005Z,4.77
2018-03-29T15:37:30.486Z,4.57
2018-03-29T15:39:57.935Z,3.73
2018-03-29T15:42:25.365Z,3.80
2018-03-29T15:44:52.825Z,3.43
2018-03-29T15:47:20.267Z,4.70
2018-03-29T15:49:47.836Z,3.60
2018-03-29T15:52:15.461Z,3.60
2018-03-29T15:54:42.892Z,3.30
2018-03-29T15:57:10.354Z,3.30
2018-03-29T15:59:37.773Z,3.47
2018-03-29T16:02:05.294Z,3.77
2018-03-29T16:04:32.715Z,3.90
2018-03-29T16:07:00.145Z,3.57
2018-03-29T16:09:27.589Z,3.60
2018-03-29T16:11:55.128Z,3.43
2018-03-29T16:14:23.175Z,3.97
2018-03-29T16:16:50.630Z,3.33
2018-03-29T16:19:18.073Z,3.83
2018-03-29T16:21:45.504Z,3.07
2018-03-29T16:24:12.984Z,3.20
2018-03-29T16:26:40.433Z,3.43
2018-03-29T16:29:08.060Z,3.60
2018-03-29T16:31:35.563Z,3.40
2018-03-29T16:34:03.073Z,3.60
2018-03-29T16:36:30.538Z,3.30
2018-03-29T16:38:58.458Z,3.60
2018-03-29T16:41:25.968Z,3.33
2018-03-29T16:43:53.614Z,3.53
2018-03-29T16:46:21.037Z,3.33
2018-03-29T16:48:48.522Z,3.03
2018-03-29T16:51:15.937Z,3.20
2018-03-29T16:53:43.378Z,3.00
2018-03-29T16:56:10.844Z,4.60
2018-03-29T16:58:38.479Z,3.57
2018-03-29T17:01:05.901Z,2.90
2018-03-29T17:03:33.411Z,3.20
2018-03-29T17:06:01.954Z,3.17
2018-03-29T17:08:29.436Z,2.93
2018-03-29T17:10:57.153Z,3.03
2018-03-29T17:13:24.671Z,2.90
2018-03-29T17:15:52.240Z,3.00
2018-03-29T17:18:19.828Z,2.97
2018-03-29T17:20:47.585Z,2.93
2018-03-29T17:23:15.201Z,2.60
2018-03-29T17:25:43.565Z,2.70
2018-03-29T17:28:11.591Z,2.80
2018-03-29T17:30:39.057Z,2.62
2018-03-29T17:33:06.497Z,2.83
2018-03-29T17:35:33.986Z,3.40
2018-03-29T17:38:01.475Z,3.20
2018-03-29T17:40:29.004Z,3.03
2018-03-29T17:42:56.721Z,3.00
2018-03-29T17:45:24.179Z,3.37
2018-03-29T17:47:51.599Z,2.97
2018-03-29T17:50:20.145Z,3.57
2018-03-29T17:52:48.325Z,3.00
2018-03-29T17:55:15.771Z,3.50
2018-03-29T17:57:43.270Z,4.03
2018-03-29T18:00:10.815Z,3.70
2018-03-29T18:02:38.454Z,3.90
2018-03-29T18:05:05.940Z,4.50
2018-03-29T18:07:33.413Z,3.63
2018-03-29T18:10:00.894Z,4.10
2018-03-29T18:12:28.363Z,4.97
2018-03-29T18:14:55.800Z,4.40
2018-03-29T18:17:23.265Z,4.90
2018-03-29T18:19:50.698Z,4.37
2018-03-29T18:22:18.336Z,4.73
2018-03-29T18:24:45.762Z,4.70
2018-03-29T18:27:13.218Z,4.40
2018-03-29T18:29:40.688Z,3.83
2018-03-29T18:32:08.160Z,4.80
2018-03-29T18:34:35.598Z,4.17
2018-03-29T18:37:03.079Z,3.60
2018-03-29T18:39:30.509Z,4.47
2018-03-29T18:41:58.175Z,3.57
2018-03-29T18:44:25.737Z,5.43
2018-03-29T18:46:53.239Z,4.50
2018-03-29T18:49:20.694Z,3.57
2018-03-29T18:51:48.182Z,5.40
2018-03-29T18:54:15.659Z,3.90
2018-03-29T18:56:44.737Z,4.00
2018-03-29T18:59:12.237Z,3.33
2018-03-29T19:01:39.768Z,4.20
2018-03-29T19:04:07.220Z,3.53
2018-03-29T19:06:34.664Z,3.93
2018-03-29T19:09:02.123Z,4.30
2018-03-29T19:11:29.616Z,5.90
2018-03-29T19:13:57.088Z,5.37
2018-03-29T19:16:24.646Z,6.33
2018-03-29T19:18:52.139Z,6.33
2018-03-29T19:21:19.639Z,6.10
2018-03-29T19:23:47.272Z,5.97
2018-03-29T19:26:14.883Z,7.03
2018-03-29T19:28:42.358Z,8.03
2018-03-29T19:31:09.845Z,7.83
2018-03-29T19:33:37.303Z,7.00
2018-03-29T19:36:04.802Z,8.13
2018-03-29T19:38:32.240Z,7.23
2018-03-29T19:40:59.730Z,6.70
2018-03-29T19:43:27.199Z,7.87
2018-03-29T19:45:54.672Z,7.57
2018-03-29T19:48:22.189Z,8.07
2018-03-29T19:50:49.682Z,7.23
2018-03-29T19:53:17.432Z,7.40
2018-03-29T19:55:44.908Z,7.60
2018-03-29T19:58:12.432Z,7.80
2018-03-29T20:00:39.934Z,9.53
2018-03-29T20:03:07.522Z,12.13
2018-03-29T20:05:35.070Z,12.50
2018-03-29T20:08:02.732Z,11.20
2018-03-29T20:10:30.340Z,9.73
2018-03-29T20:12:57.835Z,10.63
2018-03-29T20:15:25.290Z,9.47
2018-03-29T20:17:52.795Z,9.20
2018-03-29T20:20:20.272Z,9.90
2018-03-29T20:22:48.056Z,9.67
2018-03-29T20:25:15.508Z,11.47
2018-03-29T20:27:42.965Z,16.00
2018-03-29T20:30:10.454Z,17.97
2018-03-29T20:32:37.922Z,19.70
2018-03-29T20:35:05.400Z,17.67
2018-03-29T20:37:32.900Z,18.53
2018-03-29T20:40:00.390Z,23.17
2018-03-29T20:42:27.819Z,21.87
2018-03-29T20:44:55.312Z,19.57
2018-03-29T20:47:22.997Z,19.17
2018-03-29T20:49:50.422Z,16.07
2018-03-29T20:52:17.943Z,14.70
2018-03-29T20:54:45.413Z,14.87
2018-03-29T20:57:12.882Z,12.83
2018-03-29T20:59:40.327Z,12.10
2018-03-29T21:02:07.804Z,12.40
2018-03-29T21:04:35.855Z,13.63
2018-03-29T21:07:03.382Z,13.40
2018-03-29T21:09:31.128Z,13.80
2018-03-29T21:11:58.577Z,15.20
2018-03-29T21:14:26.046Z,16.50
2018-03-29T21:16:53.475Z,20.77
2018-03-29T21:19:20.936Z,14.93
2018-03-29T21:21:48.425Z,17.03
2018-03-29T21:24:15.978Z,18.73
2018-03-29T21:26:43.565Z,17.80
2018-03-29T21:29:11.029Z,18.80
2018-03-29T21:31:38.442Z,20.50
2018-03-29T21:34:43.912Z,21.90
2018-03-29T21:37:11.345Z,23.70
2018-03-29T21:39:38.806Z,20.53
2018-03-29T21:42:06.338Z,18.57
2018-03-29T21:44:33.842Z,18.33
2018-03-29T21:47:01.402Z,15.70
2018-03-29T21:49:29.012Z,15.03
2018-03-29T21:51:56.560Z,13.80
2018-03-29T21:54:24.108Z,13.70
2018-03-29T21:56:51.552Z,14.70
2018-03-29T21:59:19.048Z,17.33
2018-03-29T22:01:47.941Z,13.40
2018-03-29T22:04:16.350Z,11.93
2018-03-29T22:06:43.852Z,12.43
2018-03-29T22:09:11.324Z,10.30
2018-03-29T22:11:38.925Z,9.87
2018-03-29T22:14:07.040Z,9.07
2018-03-29T22:16:34.523Z,9.10
2018-03-29T22:19:02.102Z,10.33
2018-03-29T22:21:29.638Z,9.50
2018-03-29T22:23:57.192Z,10.40
2018-03-29T22:26:24.804Z,9.73
2018-03-29T22:28:52.237Z,10.00
2018-03-29T22:31:19.715Z,8.80
2018-03-29T22:33:47.191Z,10.23
2018-03-29T22:36:14.592Z,9.50
2018-03-29T22:38:42.053Z,8.80
2018-03-29T22:41:09.476Z,8.27
2018-03-29T22:43:37.212Z,9.37
2018-03-29T22:46:04.638Z,8.87
2018-03-29T22:48:32.156Z,9.63
2018-03-29T22:50:59.614Z,9.27
2018-03-29T22:53:27.045Z,9.13
2018-03-29T22:55:54.505Z,9.30
2018-03-29T22:58:21.927Z,9.27
2018-03-29T23:00:49.392Z,9.60
2018-03-29T23:03:17.060Z,9.30
2018-03-29T23:05:44.527Z,9.37
2018-03-29T23:08:11.958Z,8.63
2018-03-29T23:10:39.441Z,10.50
2018-03-29T23:13:06.857Z,9.63
2018-03-29T23:15:34.651Z,9.77
2018-03-29T23:18:02.096Z,10.30
2018-03-29T23:20:29.565Z,10.73
2018-03-29T23:22:57.026Z,9.70
2018-03-29T23:25:24.465Z,9.90
2018-03-29T23:27:51.931Z,9.33
2018-03-29T23:30:19.373Z,9.60
2018-03-29T23:32:46.947Z,9.30
2018-03-29T23:35:15.130Z,9.60
2018-03-29T23:37:43.509Z,9.23
2018-03-29T23:40:10.995Z,10.00
2018-03-29T23:42:38.441Z,9.43
2018-03-29T23:45:05.879Z,9.03
2018-03-29T23:47:33.351Z,9.03
2018-03-29T23:50:00.776Z,9.93
2018-03-29T23:52:28.232Z,8.57
2018-03-29T23:54:55.681Z,9.60
2018-03-29T23:57:23.114Z,10.23
2018-03-29T23:59:50.600Z,9.60
